createdAt,value
2019-05-06T00:00:27.540Z,2.10
2019-05-06T00:02:55.917Z,2.00
2019-05-06T00:05:25.336Z,1.90
2019-05-06T00:07:54.946Z,1.80
2019-05-06T00:10:29.952Z,1.80
2019-05-06T00:12:58.506Z,1.70
2019-05-06T00:15:26.963Z,1.70
2019-05-06T00:17:56.220Z,1.70
2019-05-06T00:20:25.548Z,1.70
2019-05-06T00:22:58.596Z,1.70
2019-05-06T00:25:31.336Z,1.70
2019-05-06T00:28:17.930Z,1.70
2019-05-06T00:30:47.975Z,1.70
2019-05-06T00:33:16.373Z,1.60
2019-05-06T00:35:45.079Z,1.60
2019-05-06T00:38:14.037Z,1.50
2019-05-06T00:41:03.896Z,1.50
2019-05-06T00:43:31.685Z,1.40
2019-05-06T00:46:00.084Z,1.40
2019-05-06T00:48:28.473Z,1.40
2019-05-06T00:50:56.864Z,1.40
2019-05-06T00:53:26.888Z,1.40
2019-05-06T00:55:55.280Z,1.50
2019-05-06T00:58:23.958Z,1.50
2019-05-06T01:00:53.864Z,1.50
2019-05-06T01:03:23.897Z,1.50
2019-05-06T01:05:54.170Z,1.50
2019-05-06T01:08:23.961Z,1.50
2019-05-06T01:10:54.424Z,1.60
2019-05-06T01:13:35.093Z,1.60
2019-05-06T01:16:24.976Z,1.70
2019-05-06T01:18:54.170Z,1.70
2019-05-06T01:21:23.899Z,1.70
2019-05-06T01:23:54.498Z,1.70
2019-05-06T01:26:24.294Z,1.70
2019-05-06T01:28:54.575Z,1.70
2019-05-06T01:31:28.904Z,1.60
2019-05-06T01:33:54.639Z,1.70
2019-05-06T01:36:24.924Z,1.70
2019-05-06T01:39:07.598Z,1.80
2019-05-06T01:41:49.583Z,1.90
2019-05-06T01:44:17.986Z,1.90
2019-05-06T01:46:46.374Z,2.00
2019-05-06T01:49:14.756Z,2.10
2019-05-06T01:51:43.802Z,2.10
2019-05-06T01:54:14.181Z,2.10
2019-05-06T01:56:44.412Z,2.10
2019-05-06T01:59:13.990Z,2.00
2019-05-06T02:01:57.419Z,2.00
2019-05-06T02:04:14.969Z,1.90
2019-05-06T02:06:43.840Z,1.80
2019-05-06T02:09:17.386Z,1.80
2019-05-06T02:11:47.882Z,1.70
2019-05-06T02:14:16.273Z,1.60
2019-05-06T02:16:44.660Z,1.60
2019-05-06T02:19:14.809Z,1.60
2019-05-06T02:21:47.646Z,1.50
2019-05-06T02:24:17.678Z,1.50
2019-05-06T02:26:46.065Z,1.40
2019-05-06T02:29:44.697Z,1.40
2019-05-06T02:32:26.325Z,1.30
2019-05-06T02:34:49.251Z,1.30
2019-05-06T02:37:28.047Z,1.30
2019-05-06T02:39:56.434Z,1.40
2019-05-06T02:42:24.820Z,1.50
2019-05-06T02:44:54.046Z,1.50
2019-05-06T02:47:27.462Z,1.50
2019-05-06T02:50:04.433Z,1.50
2019-05-06T02:52:33.505Z,1.50
2019-05-06T02:55:01.903Z,1.50
2019-05-06T02:57:33.194Z,1.60
2019-05-06T03:00:00.420Z,1.60
2019-05-06T03:02:42.116Z,1.70
2019-05-06T03:04:58.951Z,1.70
2019-05-06T03:07:27.354Z,1.80
2019-05-06T03:09:55.743Z,1.90
2019-05-06T03:12:24.131Z,2.00
2019-05-06T03:14:53.303Z,2.10
2019-05-06T03:17:23.551Z,2.10
2019-05-06T03:19:54.308Z,2.20
2019-05-06T03:22:34.102Z,2.20
2019-05-06T03:25:06.391Z,2.30
2019-05-06T03:27:32.852Z,2.30
2019-05-06T03:30:04.034Z,2.40
2019-05-06T03:32:37.871Z,2.50
2019-05-06T03:35:24.984Z,2.50
2019-05-06T03:37:33.437Z,2.60
2019-05-06T03:40:03.092Z,2.60
2019-05-06T03:42:33.477Z,2.70
2019-05-06T03:45:04.549Z,2.80
2019-05-06T03:47:35.115Z,2.90
2019-05-06T03:50:06.196Z,3.00
2019-05-06T03:52:34.630Z,3.10
2019-05-06T03:55:03.767Z,3.10
2019-05-06T03:57:36.134Z,3.20
2019-05-06T04:00:07.121Z,3.20
2019-05-06T04:02:39.412Z,3.20
2019-05-06T04:05:06.359Z,3.20
2019-05-06T04:07:34.769Z,3.10
2019-05-06T04:10:04.714Z,3.10
2019-05-06T04:12:35.535Z,3.10
2019-05-06T04:15:05.270Z,3.10
2019-05-06T04:17:43.819Z,3.20
2019-05-06T04:20:14.706Z,3.20
2019-05-06T04:22:47.500Z,3.20
2019-05-06T04:25:36.783Z,3.20
2019-05-06T04:28:08.082Z,3.20
2019-05-06T04:30:36.536Z,3.20
2019-05-06T04:33:05.018Z,3.30
2019-05-06T04:35:33.977Z,3.40
2019-05-06T04:38:03.812Z,3.40
2019-05-06T04:40:33.113Z,3.40
2019-05-06T04:43:03.679Z,3.40
2019-05-06T04:45:33.648Z,3.40
2019-05-06T04:48:03.700Z,3.40
2019-05-06T04:50:33.103Z,3.50
2019-05-06T04:53:05.967Z,3.60
2019-05-06T04:55:37.255Z,3.60
2019-05-06T04:58:06.528Z,3.70
2019-05-06T05:00:37.165Z,3.80
2019-05-06T05:03:06.525Z,3.90
2019-05-06T05:05:35.890Z,4.00
2019-05-06T05:08:04.445Z,4.10
2019-05-06T05:10:46.294Z,4.20
2019-05-06T05:13:23.094Z,4.30
2019-05-06T05:16:12.709Z,4.30
2019-05-06T05:18:48.221Z,4.40
2019-05-06T05:21:17.501Z,4.50
2019-05-06T05:23:45.890Z,4.60
2019-05-06T05:26:14.353Z,4.60
2019-05-06T05:28:43.010Z,4.70
2019-05-06T05:31:12.377Z,4.90
2019-05-06T05:33:42.340Z,5.00
2019-05-06T05:36:12.433Z,5.00
2019-05-06T05:38:43.165Z,5.00
2019-05-06T05:41:12.624Z,5.10
2019-05-06T05:43:58.922Z,5.10
2019-05-06T05:46:27.306Z,5.10
2019-05-06T05:49:00.064Z,5.10
2019-05-06T05:51:28.452Z,5.20
2019-05-06T05:53:56.854Z,5.20
2019-05-06T05:56:25.272Z,5.20
2019-05-06T05:58:53.762Z,5.30
2019-05-06T06:01:24.744Z,5.30
2019-05-06T06:03:53.205Z,5.30
2019-05-06T06:06:22.176Z,5.40
2019-05-06T06:08:52.278Z,5.50
2019-05-06T06:11:26.584Z,5.50
2019-05-06T06:13:56.693Z,5.40
2019-05-06T06:16:32.726Z,5.50
2019-05-06T06:19:03.207Z,5.50
2019-05-06T06:21:37.677Z,5.50
2019-05-06T06:24:19.581Z,5.50
2019-05-06T06:26:48.052Z,5.60
2019-05-06T06:29:17.510Z,5.60
2019-05-06T06:32:04.055Z,5.70
2019-05-06T06:34:42.553Z,5.70
2019-05-06T06:37:28.786Z,5.80
2019-05-06T06:39:58.888Z,5.80
2019-05-06T06:42:27.280Z,5.80
2019-05-06T06:44:55.686Z,5.80
2019-05-06T06:47:24.068Z,5.80
2019-05-06T06:49:53.468Z,5.90
2019-05-06T06:52:23.256Z,5.90
2019-05-06T06:54:52.822Z,6.00
2019-05-06T06:57:26.330Z,6.10
2019-05-06T06:59:57.827Z,6.10
2019-05-06T07:02:36.910Z,6.20
2019-05-06T07:05:24.368Z,6.40
2019-05-06T07:07:47.152Z,6.70
2019-05-06T07:10:32.520Z,6.90
2019-05-06T07:13:02.921Z,7.00
2019-05-06T07:15:33.426Z,7.00
2019-05-06T07:18:02.276Z,7.00
2019-05-06T07:20:38.892Z,7.10
2019-05-06T07:23:25.113Z,7.50
2019-05-06T07:25:55.528Z,7.90
2019-05-06T07:28:25.853Z,8.20
2019-05-06T07:30:55.885Z,8.40
2019-05-06T07:33:24.289Z,8.50
2019-05-06T07:35:53.242Z,8.80
2019-05-06T07:38:23.355Z,9.10
2019-05-06T07:40:53.640Z,9.30
2019-05-06T07:43:38.600Z,9.30
2019-05-06T07:46:24.497Z,9.60
2019-05-06T07:48:52.894Z,10.50
2019-05-06T07:51:21.307Z,11.30
2019-05-06T07:53:49.709Z,11.90
2019-05-06T07:56:19.305Z,12.40
2019-05-06T07:58:47.680Z,12.50
2019-05-06T08:01:16.086Z,12.50
2019-05-06T08:03:44.473Z,12.50
2019-05-06T08:06:13.405Z,12.50
2019-05-06T08:08:43.327Z,12.60
2019-05-06T08:11:12.690Z,12.60
2019-05-06T08:13:43.480Z,12.50
2019-05-06T08:16:13.145Z,12.60
2019-05-06T08:18:42.590Z,12.80
2019-05-06T08:21:19.356Z,12.80
2019-05-06T08:23:49.405Z,12.80
2019-05-06T08:26:18.108Z,13.00
2019-05-06T08:28:47.194Z,13.40
2019-05-06T08:31:17.225Z,13.70
2019-05-06T08:33:45.613Z,13.80
2019-05-06T08:36:15.650Z,13.90
2019-05-06T08:38:57.744Z,13.90
2019-05-06T08:41:27.272Z,13.60
2019-05-06T08:43:56.605Z,13.50
2019-05-06T08:46:25.085Z,13.40
2019-05-06T08:48:53.569Z,13.70
2019-05-06T08:51:35.225Z,13.70
2019-05-06T08:54:15.202Z,13.70
2019-05-06T08:56:43.607Z,13.50
2019-05-06T08:59:13.898Z,13.70
2019-05-06T09:01:43.757Z,13.90
2019-05-06T09:04:15.368Z,13.70
2019-05-06T09:06:43.132Z,13.70
2019-05-06T09:09:13.089Z,13.60
2019-05-06T09:11:43.140Z,13.20
2019-05-06T09:14:13.631Z,12.80
2019-05-06T09:16:43.824Z,12.60
2019-05-06T09:19:12.988Z,12.30
2019-05-06T09:21:45.665Z,12.20
2019-05-06T09:24:12.859Z,12.20
2019-05-06T09:26:43.592Z,12.20
2019-05-06T09:29:16.365Z,12.10
2019-05-06T09:31:55.412Z,11.70
2019-05-06T09:34:28.406Z,11.50
2019-05-06T09:37:13.568Z,11.40
2019-05-06T09:39:45.518Z,11.50
2019-05-06T09:42:14.463Z,11.50
2019-05-06T09:44:45.385Z,11.40
2019-05-06T09:47:33.126Z,11.30
2019-05-06T09:50:02.780Z,11.50
2019-05-06T09:52:33.333Z,11.60
2019-05-06T09:55:06.549Z,11.60
2019-05-06T09:57:52.746Z,11.40
2019-05-06T10:00:23.519Z,11.10
2019-05-06T10:02:53.121Z,10.90
2019-05-06T10:05:21.577Z,10.70
2019-05-06T10:07:52.249Z,10.50
2019-05-06T10:10:22.236Z,10.60
2019-05-06T10:12:52.881Z,10.60
2019-05-06T10:15:21.807Z,10.70
2019-05-06T10:18:13.139Z,10.80
2019-05-06T10:20:44.246Z,10.80
2019-05-06T10:23:14.680Z,10.80
2019-05-06T10:25:44.810Z,10.70
2019-05-06T10:28:16.585Z,10.50
2019-05-06T10:30:44.973Z,10.40
2019-05-06T10:33:15.104Z,10.10
2019-05-06T10:35:43.473Z,9.90
2019-05-06T10:38:33.309Z,9.80
2019-05-06T10:41:07.562Z,9.60
2019-05-06T10:43:46.842Z,9.40
2019-05-06T10:46:15.228Z,9.10
2019-05-06T10:48:43.642Z,8.70
2019-05-06T10:51:16.854Z,8.40
2019-05-06T10:53:43.781Z,8.20
2019-05-06T10:56:13.819Z,8.20
2019-05-06T10:58:43.999Z,8.40
2019-05-06T11:01:16.740Z,8.80
2019-05-06T11:03:45.130Z,9.10
2019-05-06T11:06:13.589Z,9.40
2019-05-06T11:08:42.211Z,9.70
2019-05-06T11:11:16.978Z,10.10
2019-05-06T11:13:41.357Z,10.40
2019-05-06T11:16:09.764Z,10.40
2019-05-06T11:18:38.150Z,10.30
2019-05-06T11:21:06.536Z,10.30
2019-05-06T11:23:34.936Z,10.30
2019-05-06T11:26:03.390Z,10.50
2019-05-06T11:28:42.723Z,10.60
2019-05-06T11:31:14.116Z,10.80
2019-05-06T11:33:47.244Z,11.10
2019-05-06T11:36:33.772Z,11.20
2019-05-06T11:39:02.174Z,11.40
2019-05-06T11:41:32.235Z,11.50
2019-05-06T11:44:00.701Z,11.50
2019-05-06T11:46:29.101Z,11.40
2019-05-06T11:48:57.491Z,11.30
2019-05-06T11:51:27.537Z,11.20
2019-05-06T11:53:55.938Z,11.10
2019-05-06T11:56:24.345Z,11.10
2019-05-06T11:58:57.137Z,11.20
2019-05-06T12:01:35.934Z,11.30
2019-05-06T12:04:04.389Z,11.50
2019-05-06T12:06:33.183Z,11.80
2019-05-06T12:09:06.398Z,12.30
2019-05-06T12:11:32.368Z,12.90
2019-05-06T12:14:02.560Z,13.50
2019-05-06T12:16:32.948Z,14.00
2019-05-06T12:19:02.801Z,14.30
2019-05-06T12:21:32.997Z,14.60
2019-05-06T12:24:02.874Z,14.80
2019-05-06T12:26:32.224Z,14.90
2019-05-06T12:29:02.205Z,15.20
2019-05-06T12:31:32.789Z,15.50
2019-05-06T12:34:02.657Z,15.80
2019-05-06T12:36:32.640Z,15.90
2019-05-06T12:39:18.127Z,15.80
2019-05-06T12:42:02.730Z,16.10
2019-05-06T12:44:33.101Z,16.50
2019-05-06T12:47:19.675Z,16.90
2019-05-06T12:49:48.065Z,17.40
2019-05-06T12:52:16.471Z,17.90
2019-05-06T12:54:44.869Z,18.20
2019-05-06T12:57:13.266Z,18.30
2019-05-06T12:59:42.601Z,18.50
2019-05-06T13:02:13.454Z,18.70
2019-05-06T13:04:51.357Z,19.00
2019-05-06T13:07:13.614Z,18.80
2019-05-06T13:09:43.306Z,18.40
2019-05-06T13:12:13.793Z,18.20
2019-05-06T13:14:43.058Z,18.10
2019-05-06T13:17:13.799Z,18.40
2019-05-06T13:19:42.832Z,18.50
2019-05-06T13:22:13.533Z,18.70
2019-05-06T13:24:42.105Z,18.40
2019-05-06T13:27:12.664Z,18.10
2019-05-06T13:29:42.880Z,17.70
2019-05-06T13:32:12.941Z,17.60
2019-05-06T13:34:42.470Z,18.60
2019-05-06T13:37:12.851Z,19.40
2019-05-06T13:39:43.601Z,19.20
2019-05-06T13:42:13.403Z,18.60
2019-05-06T13:44:42.612Z,18.70
2019-05-06T13:47:13.450Z,18.80
2019-05-06T13:49:49.429Z,18.40
2019-05-06T13:52:19.455Z,17.70
2019-05-06T13:54:47.842Z,17.10
2019-05-06T13:57:16.246Z,16.30
2019-05-06T13:59:44.704Z,15.70
2019-05-06T14:02:16.248Z,15.10
2019-05-06T14:04:44.868Z,14.60
2019-05-06T14:07:13.319Z,14.10
2019-05-06T14:09:43.632Z,13.70
2019-05-06T14:12:12.101Z,13.70
2019-05-06T14:14:42.960Z,13.90
2019-05-06T14:17:12.304Z,14.10
2019-05-06T14:19:42.871Z,14.30
2019-05-06T14:22:12.526Z,14.50
2019-05-06T14:24:43.184Z,14.30
2019-05-06T14:27:13.361Z,14.10
2019-05-06T14:30:53.408Z,13.80
2019-05-06T14:33:23.806Z,12.70
2019-05-06T14:35:52.714Z,11.70
2019-05-06T14:38:24.606Z,10.70
2019-05-06T14:41:13.126Z,10.00
2019-05-06T14:43:42.894Z,9.50
2019-05-06T14:46:11.943Z,9.20
2019-05-06T14:48:40.394Z,9.00
2019-05-06T14:51:08.789Z,8.80
2019-05-06T14:53:37.185Z,8.70
2019-05-06T14:56:07.212Z,8.50
2019-05-06T14:58:35.621Z,8.40
2019-05-06T15:01:04.994Z,8.20
2019-05-06T15:03:33.391Z,8.10
2019-05-06T15:06:02.621Z,8.00
2019-05-06T15:08:32.799Z,7.90
2019-05-06T15:11:03.148Z,7.80
2019-05-06T15:13:34.562Z,7.80
2019-05-06T15:16:03.684Z,7.80
2019-05-06T15:18:32.633Z,7.80
2019-05-06T15:21:28.697Z,7.80
2019-05-06T15:23:31.153Z,7.90
2019-05-06T15:25:59.541Z,7.90
2019-05-06T15:28:27.930Z,7.90
2019-05-06T15:31:03.469Z,8.00
2019-05-06T15:33:33.520Z,8.00
2019-05-06T15:36:03.608Z,8.10
2019-05-06T15:38:33.655Z,8.10
2019-05-06T15:41:02.049Z,8.10
2019-05-06T15:43:30.449Z,8.20
2019-05-06T15:45:58.910Z,8.20
2019-05-06T15:48:27.306Z,8.20
2019-05-06T15:50:55.708Z,8.20
2019-05-06T15:53:24.097Z,8.10
2019-05-06T15:55:53.490Z,8.10
2019-05-06T15:58:22.956Z,8.10
2019-05-06T16:00:53.187Z,8.10
2019-05-06T16:03:22.731Z,8.20
2019-05-06T16:05:52.840Z,8.20
2019-05-06T16:08:24.274Z,8.20
2019-05-06T16:10:58.139Z,8.20
2019-05-06T16:13:22.401Z,8.30
2019-05-06T16:15:53.221Z,8.30
2019-05-06T16:18:23.414Z,8.40
2019-05-06T16:20:51.536Z,8.30
2019-05-06T16:23:23.093Z,8.30
2019-05-06T16:25:52.405Z,8.30
2019-05-06T16:28:22.492Z,8.30
2019-05-06T16:30:53.427Z,8.20
2019-05-06T16:33:22.162Z,8.20
2019-05-06T16:35:52.217Z,8.20
2019-05-06T16:38:23.044Z,8.10
2019-05-06T16:41:02.115Z,8.10
2019-05-06T16:43:22.150Z,8.10
2019-05-06T16:45:53.188Z,8.10
2019-05-06T16:48:23.897Z,8.10
2019-05-06T16:50:52.367Z,8.10
2019-05-06T16:53:22.835Z,8.10
2019-05-06T16:56:02.270Z,8.10
2019-05-06T16:58:33.070Z,8.20
2019-05-06T17:01:03.241Z,8.20
2019-05-06T17:03:45.249Z,8.20
2019-05-06T17:06:32.583Z,8.30
2019-05-06T17:09:16.925Z,8.30
2019-05-06T17:11:34.205Z,8.30
2019-05-06T17:14:02.956Z,8.30
2019-05-06T17:16:33.549Z,8.30
2019-05-06T17:19:03.277Z,8.40
2019-05-06T17:21:33.241Z,8.40
2019-05-06T17:24:02.289Z,8.40
2019-05-06T17:26:31.420Z,8.40
2019-05-06T17:29:02.682Z,8.40
2019-05-06T17:31:51.743Z,8.40
2019-05-06T17:34:24.773Z,8.40
2019-05-06T17:36:54.817Z,8.40
2019-05-06T17:39:23.208Z,8.40
2019-05-06T17:41:52.224Z,8.30
2019-05-06T17:44:22.935Z,8.40
2019-05-06T17:46:52.944Z,8.40
2019-05-06T17:49:25.799Z,8.40
2019-05-06T17:51:55.828Z,8.40
2019-05-06T17:54:25.987Z,8.40
2019-05-06T17:56:54.368Z,8.50
2019-05-06T17:59:22.760Z,8.50
2019-05-06T18:01:53.265Z,8.50
2019-05-06T18:04:22.824Z,8.50
2019-05-06T18:06:52.587Z,8.50
2019-05-06T18:09:22.327Z,8.60
2019-05-06T18:11:58.838Z,8.60
2019-05-06T18:14:22.977Z,8.60
2019-05-06T18:16:53.803Z,8.60
2019-05-06T18:19:22.326Z,8.50
2019-05-06T18:21:52.840Z,8.50
2019-05-06T18:24:23.049Z,8.50
2019-05-06T18:26:52.842Z,8.50
2019-05-06T18:29:22.199Z,8.50
2019-05-06T18:31:52.452Z,8.40
2019-05-06T18:34:23.205Z,8.40
2019-05-06T18:36:52.481Z,8.40
2019-05-06T18:39:22.332Z,8.30
2019-05-06T18:41:53.100Z,8.20
2019-05-06T18:44:22.744Z,8.10
2019-05-06T18:46:53.076Z,8.10
2019-05-06T18:49:22.502Z,8.10
2019-05-06T18:51:54.131Z,8.10
2019-05-06T18:54:22.174Z,8.10
2019-05-06T18:56:52.191Z,8.10
2019-05-06T18:59:23.122Z,8.00
2019-05-06T19:01:53.724Z,8.00
2019-05-06T19:04:23.121Z,7.90
2019-05-06T19:07:08.706Z,7.90
2019-05-06T19:09:23.521Z,7.90
2019-05-06T19:11:54.299Z,7.80
2019-05-06T19:14:22.434Z,7.70
2019-05-06T19:16:54.591Z,7.60
2019-05-06T19:19:23.202Z,7.50
2019-05-06T19:21:52.421Z,7.40
2019-05-06T19:24:22.647Z,7.40
2019-05-06T19:26:52.733Z,7.30
2019-05-06T19:29:23.200Z,7.20
2019-05-06T19:31:52.196Z,7.20
2019-05-06T19:34:20.769Z,7.10
2019-05-06T19:36:49.266Z,7.00
2019-05-06T19:39:17.837Z,7.00
2019-05-06T19:41:46.327Z,6.90
2019-05-06T19:44:14.728Z,6.80
2019-05-06T19:46:43.193Z,6.80
2019-05-06T19:49:11.589Z,6.90
2019-05-06T19:51:40.000Z,6.80
2019-05-06T19:54:08.399Z,6.80
2019-05-06T19:56:36.836Z,6.70
2019-05-06T19:59:05.261Z,6.60
2019-05-06T20:01:33.680Z,6.50
2019-05-06T20:04:02.647Z,6.40
2019-05-06T20:06:39.653Z,6.30
2019-05-06T20:09:27.173Z,6.20
2019-05-06T20:11:57.192Z,6.10
2019-05-06T20:14:25.589Z,6.10
2019-05-06T20:16:53.998Z,6.20
2019-05-06T20:19:30.874Z,6.20
2019-05-06T20:21:52.873Z,6.30
2019-05-06T20:24:22.512Z,6.40
2019-05-06T20:26:52.746Z,6.40
2019-05-06T20:29:22.431Z,6.40
2019-05-06T20:31:53.518Z,6.40
2019-05-06T20:34:22.387Z,6.40
2019-05-06T20:36:52.776Z,6.40
2019-05-06T20:39:23.019Z,6.40
2019-05-06T20:41:51.538Z,6.30
2019-05-06T20:44:19.924Z,6.30
2019-05-06T20:46:48.329Z,6.20
2019-05-06T20:49:16.717Z,6.20
2019-05-06T20:51:45.108Z,6.20
2019-05-06T20:54:13.514Z,6.20
2019-05-06T20:56:42.208Z,6.30
2019-05-06T20:59:12.176Z,6.30
2019-05-06T21:01:42.511Z,6.30
2019-05-06T21:04:13.078Z,6.40
2019-05-06T21:06:42.601Z,6.40
2019-05-06T21:09:12.474Z,6.50
2019-05-06T21:11:42.085Z,6.50
2019-05-06T21:14:13.235Z,6.50
2019-05-06T21:16:42.314Z,6.50
2019-05-06T21:19:12.657Z,6.50
2019-05-06T21:21:43.226Z,6.40
2019-05-06T21:24:13.015Z,6.30
2019-05-06T21:26:42.538Z,6.30
2019-05-06T21:29:12.753Z,6.30
2019-05-06T21:31:42.367Z,6.30
2019-05-06T21:34:12.852Z,6.30
2019-05-06T21:36:42.241Z,6.20
2019-05-06T21:39:13.026Z,6.10
2019-05-06T21:41:42.757Z,6.10
2019-05-06T21:44:13.216Z,6.00
2019-05-06T21:46:42.863Z,6.00
2019-05-06T21:49:12.358Z,6.10
2019-05-06T21:51:42.514Z,6.10
2019-05-06T21:54:12.625Z,6.20
2019-05-06T21:56:42.422Z,6.20
2019-05-06T21:59:12.912Z,6.30
2019-05-06T22:01:43.239Z,6.30
2019-05-06T22:04:12.860Z,6.30
2019-05-06T22:06:42.874Z,6.30
2019-05-06T22:09:14.386Z,6.10
2019-05-06T22:11:42.844Z,6.00
2019-05-06T22:14:12.324Z,5.90
2019-05-06T22:16:43.535Z,5.80
2019-05-06T22:19:12.105Z,5.70
2019-05-06T22:21:42.754Z,5.70
2019-05-06T22:24:12.784Z,5.70
2019-05-06T22:26:43.043Z,5.70
2019-05-06T22:29:12.784Z,5.60
2019-05-06T22:31:42.332Z,5.60
2019-05-06T22:34:13.405Z,5.60
2019-05-06T22:36:41.365Z,5.60
2019-05-06T22:39:11.869Z,5.60
2019-05-06T22:41:39.880Z,5.60
2019-05-06T22:44:13.858Z,5.70
2019-05-06T22:46:38.404Z,5.70
2019-05-06T22:49:06.796Z,5.70
2019-05-06T22:51:35.184Z,5.70
2019-05-06T22:54:03.594Z,5.70
2019-05-06T22:56:32.642Z,5.80
2019-05-06T22:59:03.190Z,5.80
2019-05-06T23:01:54.353Z,5.80
2019-05-06T23:04:24.089Z,5.90
2019-05-06T23:06:52.604Z,5.90
2019-05-06T23:09:22.910Z,5.90
2019-05-06T23:11:51.150Z,5.90
2019-05-06T23:14:30.590Z,5.80
2019-05-06T23:16:51.978Z,5.80
2019-05-06T23:19:19.786Z,5.80
2019-05-06T23:21:48.170Z,5.80
2019-05-06T23:24:16.557Z,5.80
2019-05-06T23:26:44.957Z,5.80
2019-05-06T23:29:13.349Z,5.80
2019-05-06T23:31:42.470Z,5.70
2019-05-06T23:34:12.519Z,5.70
2019-05-06T23:37:02.455Z,5.60
2019-05-06T23:40:08.200Z,5.60
2019-05-06T23:43:12.808Z,5.60
2019-05-06T23:46:17.434Z,5.60
2019-05-06T23:49:22.351Z,5.70
2019-05-06T23:52:26.992Z,5.80
2019-05-06T23:55:31.992Z,5.90
2019-05-06T23:57:59.321Z,5.90
